Seneca, Michigan
Current Conditions -  °F | °C
As of 1:53 AM on Monday 24 Nov 2014 (Local Time) from KADG Reporting Station
Light Rain Light Rain  
Wind Chill: 13°   Ceiling: 1000
Heat Index: 13°   Visibility: 9mi
Dew Point: 12°   Wind: 20mph
Humidity: 93%   Direction: 200°SSW
Pressure: 29.08"   Gusts: 29mph
Location:  41.79°N, 84.18°W
Report Text: KADG 240653Z AUTO 20017G25KT 9SM -RA OVC010 13/12 A2908 RMK AO2 PK WND 19027/0617 CIG 008V013 SLP850 P0000 T01280117 $
Loading
Personal Weather Stations






























Interactive Weather Map New forecast layout! Learn more

10-Day Weather Forecast

Advertisements
Track Severe Weather on mobile